Time;durP1;ratioP1;P1;durP2;ratioP2;P2;SDS_P1;SDS_P2;PMS_P1;PMS_P2;Temp;Humidity;BMP_temperature;BMP_pressure;BME280_temperature;BME280_humidity;BME280_pressure;Samples;Min_cycle;Max_cycle;Signal;HPM_P1;HPM_P2
2021/12/11 00:02:17;;;;;;;2.23;1.80;;;3.40;99.90;;;;;;5093601;28;20241;-60
2021/12/11 00:04:44;;;;;;;4.03;1.50;;;3.50;99.90;;;;;;5093320;28;20168;-59
2021/12/11 00:07:14;;;;;;;1.73;1.57;;;3.40;99.90;;;;;;5093310;28;20176;-60
2021/12/11 00:09:45;;;;;;;2.50;1.57;;;3.40;99.90;;;;;;5092888;28;20204;-59
2021/12/11 00:12:21;;;;;;;2.80;1.77;;;3.40;99.90;;;;;;5091858;28;20229;-60
2021/12/11 00:14:52;;;;;;;1.70;1.60;;;3.40;99.90;;;;;;5093501;28;20278;-60
2021/12/11 00:17:28;;;;;;;3.80;1.60;;;3.40;99.90;;;;;;5093310;28;20172;-58
2021/12/11 00:19:54;;;;;;;3.53;1.60;;;3.40;99.90;;;;;;5091763;28;20206;-59
2021/12/11 00:22:23;;;;;;;1.70;1.60;;;3.40;99.90;;;;;;5092990;28;20643;-59
2021/12/11 00:24:49;;;;;;;1.63;1.50;;;3.40;99.90;;;;;;5092866;28;20710;-59
2021/12/11 00:27:28;;;;;;;1.83;1.30;;;3.30;99.90;;;;;;5093058;28;20745;-60
2021/12/11 00:29:54;;;;;;;2.83;1.40;;;3.30;99.90;;;;;;5092983;28;20306;-59
2021/12/11 00:32:26;;;;;;;1.63;1.40;;;3.40;99.90;;;;;;5093189;28;20216;-59
2021/12/11 00:34:55;;;;;;;3.00;1.60;;;3.30;99.90;;;;;;5093310;28;20187;-59
2021/12/11 00:37:23;;;;;;;1.40;1.30;;;3.30;99.90;;;;;;5092231;28;20310;-59
2021/12/11 00:39:56;;;;;;;2.33;1.40;;;3.30;99.90;;;;;;5093104;28;20172;-59
2021/12/11 00:42:24;;;;;;;1.93;1.73;;;3.30;99.90;;;;;;5092916;28;20255;-59
2021/12/11 00:44:54;;;;;;;2.53;1.98;;;3.30;99.90;;;;;;5092976;28;20203;-59
2021/12/11 00:47:24;;;;;;;2.13;1.60;;;3.20;99.90;;;;;;5092910;28;20245;-60
2021/12/11 00:50:16;;;;;;;2.90;2.20;;;3.20;99.90;;;;;;5092906;28;20310;-59
2021/12/11 00:53:10;;;;;;;3.77;2.10;;;3.20;99.90;;;;;;5092900;28;20168;-59
2021/12/11 00:55:40;;;;;;;3.43;2.07;;;3.30;99.90;;;;;;5072081;28;20216;-59
2021/12/11 00:58:19;;;;;;;3.47;1.90;;;3.30;99.90;;;;;;5092690;28;20179;-60
2021/12/11 01:00:58;;;;;;;1.77;1.50;;;3.30;99.90;;;;;;5095332;28;20662;-59
2021/12/11 01:03:42;;;;;;;3.35;2.17;;;3.30;99.90;;;;;;5092507;28;20176;-60
2021/12/11 01:06:26;;;;;;;4.33;2.30;;;3.30;99.90;;;;;;5092649;28;20180;-59
2021/12/11 01:08:58;;;;;;;3.40;2.37;;;3.30;99.90;;;;;;5092577;28;20179;-60
2021/12/11 01:11:37;;;;;;;3.38;2.28;;;3.40;99.90;;;;;;5092365;28;20194;-59
2021/12/11 01:14:18;;;;;;;6.13;2.58;;;3.30;99.90;;;;;;5092544;28;20172;-59
2021/12/11 01:16:53;;;;;;;5.40;2.90;;;3.30;99.90;;;;;;5092410;28;20212;-60
2021/12/11 01:19:21;;;;;;;3.35;2.42;;;3.40;99.90;;;;;;5092248;28;20179;-60
2021/12/11 01:21:57;;;;;;;5.05;2.72;;;3.40;99.90;;;;;;5092359;28;20168;-60
2021/12/11 01:24:29;;;;;;;5.50;2.15;;;3.40;99.90;;;;;;5092166;28;20651;-60
2021/12/11 01:26:58;;;;;;;4.35;2.38;;;3.40;99.90;;;;;;5092175;28;20168;-60
2021/12/11 01:29:25;;;;;;;5.05;2.50;;;3.40;99.90;;;;;;5092114;28;20234;-60
2021/12/11 01:31:52;;;;;;;3.33;2.05;;;3.40;99.90;;;;;;5092107;28;20192;-60
2021/12/11 01:34:18;;;;;;;4.18;2.33;;;3.40;99.90;;;;;;5091485;28;20172;-60
2021/12/11 01:36:45;;;;;;;4.22;2.67;;;3.40;99.90;;;;;;5091869;28;20188;-60
2021/12/11 01:39:15;;;;;;;4.10;2.27;;;3.30;99.90;;;;;;5092067;28;20277;-60
2021/12/11 01:41:42;;;;;;;4.72;2.30;;;3.30;99.90;;;;;;5091926;28;20548;-60
2021/12/11 01:44:16;;;;;;;3.72;2.55;;;3.40;99.90;;;;;;5091965;28;20179;-60
2021/12/11 01:46:43;;;;;;;2.85;2.45;;;3.40;99.90;;;;;;5091954;28;20597;-59
2021/12/11 01:49:14;;;;;;;2.28;2.08;;;3.30;99.90;;;;;;5091785;28;20220;-59
2021/12/11 01:51:48;;;;;;;7.00;2.95;;;3.30;99.90;;;;;;5091929;28;20194;-60
2021/12/11 01:54:21;;;;;;;6.95;3.40;;;3.30;99.90;;;;;;5083806;28;20803;-59
2021/12/11 01:56:54;;;;;;;3.35;2.40;;;3.30;99.90;;;;;;5091786;28;20224;-60
2021/12/11 01:59:33;;;;;;;4.38;2.47;;;3.30;99.90;;;;;;5091783;28;20190;-60
2021/12/11 02:02:05;;;;;;;5.38;3.10;;;3.40;99.90;;;;;;5091921;28;20256;-60
2021/12/11 02:04:36;;;;;;;3.58;2.65;;;3.40;99.90;;;;;;5091768;28;20230;-60
2021/12/11 02:07:12;;;;;;;3.33;2.50;;;3.50;99.90;;;;;;5091597;28;20192;-60
2021/12/11 02:09:40;;;;;;;3.58;2.58;;;3.50;99.90;;;;;;5094896;28;20210;-60
2021/12/11 02:12:08;;;;;;;3.70;2.50;;;3.50;99.90;;;;;;5106210;28;20168;-59
2021/12/11 02:14:40;;;;;;;4.10;2.70;;;3.50;99.90;;;;;;5091317;28;20815;-60
2021/12/11 02:17:27;;;;;;;3.63;2.17;;;3.50;99.90;;;;;;5091485;28;20234;-60
2021/12/11 02:19:56;;;;;;;2.53;2.22;;;3.50;99.90;;;;;;5091176;28;20184;-60
2021/12/11 02:22:26;;;;;;;2.75;2.30;;;3.50;99.90;;;;;;5090754;28;20651;-60
2021/12/11 02:24:56;;;;;;;4.07;2.40;;;3.40;99.90;;;;;;5090860;28;20180;-59
2021/12/11 02:27:28;;;;;;;3.42;2.42;;;3.40;99.90;;;;;;5091219;28;20204;-60
2021/12/11 02:30:18;;;;;;;3.08;2.35;;;3.40;99.90;;;;;;5069825;28;20224;-60
2021/12/11 02:32:57;;;;;;;3.60;2.42;;;3.40;99.90;;;;;;5071391;28;20689;-60
2021/12/11 02:35:47;;;;;;;3.53;2.70;;;3.30;99.90;;;;;;5072371;28;20711;-60
2021/12/11 02:39:08;;;;;;;2.80;2.40;;;3.30;99.90;;;;;;5091571;28;20172;-59
2021/12/11 02:41:39;;;;;;;2.85;2.40;;;3.30;99.90;;;;;;5028437;28;20291;-60
2021/12/11 02:44:25;;;;;;;2.50;2.13;;;3.20;99.90;;;;;;5071323;28;20173;-60
2021/12/11 02:47:08;;;;;;;2.63;2.42;;;3.20;99.90;;;;;;5082902;28;20711;-60
2021/12/11 02:49:42;;;;;;;3.92;2.58;;;3.20;99.90;;;;;;5091075;28;20211;-60
2021/12/11 02:52:23;;;;;;;3.03;2.67;;;3.20;99.90;;;;;;5091460;28;20203;-59
2021/12/11 02:55:09;;;;;;;2.65;2.28;;;3.20;99.90;;;;;;5091071;28;20191;-60
2021/12/11 02:57:40;;;;;;;4.70;2.70;;;3.30;99.90;;;;;;5090720;28;20893;-60
2021/12/11 03:00:31;;;;;;;5.00;3.25;;;3.30;99.90;;;;;;5093095;28;20180;-60
2021/12/11 03:03:03;;;;;;;3.30;2.40;;;3.30;99.90;;;;;;5094427;28;20190;-60
2021/12/11 03:05:40;;;;;;;3.60;2.67;;;3.30;99.90;;;;;;5094624;28;20187;-60
2021/12/11 03:08:09;;;;;;;3.85;3.00;;;3.30;99.90;;;;;;5093510;28;20180;-60
2021/12/11 03:10:36;;;;;;;4.32;3.40;;;3.30;99.90;;;;;;5094207;28;20258;-60
2021/12/11 03:13:04;;;;;;;3.55;2.85;;;3.30;99.90;;;;;;5094507;28;20215;-60
2021/12/11 03:15:30;;;;;;;4.00;3.08;;;3.30;99.90;;;;;;5096633;28;20184;-60
2021/12/11 03:17:56;;;;;;;4.20;3.50;;;3.20;99.90;;;;;;5104108;28;20172;-60
2021/12/11 03:20:23;;;;;;;3.17;2.65;;;3.20;99.90;;;;;;5094516;28;20700;-60
2021/12/11 03:22:49;;;;;;;4.25;3.85;;;3.20;99.90;;;;;;5094252;28;20632;-60
2021/12/11 03:25:20;;;;;;;4.45;3.20;;;3.20;99.90;;;;;;5094395;28;20176;-60
2021/12/11 03:27:46;;;;;;;4.18;3.08;;;3.10;99.90;;;;;;5094204;28;20322;-60
2021/12/11 03:30:25;;;;;;;4.70;3.70;;;3.10;99.90;;;;;;5094309;28;20376;-60
2021/12/11 03:32:57;;;;;;;3.92;3.17;;;3.10;99.90;;;;;;5093887;28;20638;-60
2021/12/11 03:35:24;;;;;;;3.05;2.72;;;3.10;99.90;;;;;;5094249;28;20227;-60
2021/12/11 03:37:50;;;;;;;3.75;3.10;;;3.20;99.90;;;;;;5094002;28;20184;-57
2021/12/11 03:40:18;;;;;;;5.00;3.30;;;3.20;99.90;;;;;;5093994;28;20642;-57
2021/12/11 03:42:46;;;;;;;3.15;2.85;;;3.20;99.90;;;;;;5093878;28;20178;-60
2021/12/11 03:45:19;;;;;;;4.82;3.42;;;3.20;99.90;;;;;;5093809;28;20187;-60
2021/12/11 03:47:53;;;;;;;21.55;11.07;;;3.10;99.90;;;;;;5093972;28;20183;-60
2021/12/11 03:50:20;;;;;;;7.07;4.63;;;3.10;99.90;;;;;;5093642;28;20216;-60
2021/12/11 03:52:48;;;;;;;4.97;3.80;;;3.10;99.90;;;;;;5093695;28;20585;-60
2021/12/11 03:55:18;;;;;;;3.93;3.50;;;3.20;99.90;;;;;;5093383;28;20259;-60
2021/12/11 03:57:44;;;;;;;4.85;4.00;;;3.20;99.90;;;;;;5093890;28;20183;-57
2021/12/11 04:00:17;;;;;;;5.63;4.95;;;3.20;99.90;;;;;;5093626;28;20188;-60
2021/12/11 04:02:44;;;;;;;5.47;4.95;;;3.10;99.90;;;;;;5093548;28;20194;-59
2021/12/11 04:05:10;;;;;;;6.07;5.10;;;3.10;99.90;;;;;;5093564;28;20180;-58
2021/12/11 04:07:41;;;;;;;5.35;4.05;;;3.10;99.90;;;;;;5093536;28;20198;-58
2021/12/11 04:10:11;;;;;;;4.03;3.40;;;3.10;99.90;;;;;;5093020;28;20207;-58
2021/12/11 04:12:36;;;;;;;5.77;3.63;;;3.10;99.90;;;;;;5092308;28;20183;-58
2021/12/11 04:15:05;;;;;;;4.53;3.30;;;3.00;99.90;;;;;;5093638;28;20573;-58
2021/12/11 04:17:31;;;;;;;3.97;3.13;;;3.00;99.90;;;;;;5092948;28;20188;-58
2021/12/11 04:20:03;;;;;;;3.03;2.73;;;3.10;99.90;;;;;;5093170;28;20191;-58
2021/12/11 04:22:29;;;;;;;4.50;3.53;;;3.00;99.90;;;;;;5092722;28;20230;-58
2021/12/11 04:24:55;;;;;;;5.23;3.83;;;3.00;99.90;;;;;;5093307;28;20184;-58
2021/12/11 04:27:24;;;;;;;4.80;3.75;;;2.90;99.90;;;;;;5097229;28;20180;-58
2021/12/11 04:29:51;;;;;;;5.22;3.53;;;3.00;99.90;;;;;;5106957;28;20211;-58
2021/12/11 04:32:18;;;;;;;5.17;3.90;;;3.00;99.90;;;;;;5105470;28;20168;-60
2021/12/11 04:34:45;;;;;;;3.78;3.20;;;3.00;99.90;;;;;;5093084;28;20184;-58
2021/12/11 04:37:18;;;;;;;4.50;3.00;;;3.00;99.90;;;;;;5092818;28;20184;-58
2021/12/11 04:39:49;;;;;;;4.43;3.35;;;2.90;99.90;;;;;;5093124;28;20262;-60
2021/12/11 04:42:37;;;;;;;3.90;3.40;;;2.90;99.90;;;;;;5092648;28;20180;-59
2021/12/11 04:45:16;;;;;;;4.55;3.63;;;2.90;99.90;;;;;;5072770;28;20169;-59
2021/12/11 04:47:49;;;;;;;4.72;3.83;;;2.90;99.90;;;;;;5081067;28;20558;-59
2021/12/11 04:50:35;;;;;;;4.23;3.83;;;2.90;99.90;;;;;;5092638;28;20220;-60
2021/12/11 04:53:03;;;;;;;5.07;3.97;;;2.90;99.90;;;;;;5092228;28;20256;-59
2021/12/11 05:01:11;;;;;;;5.83;4.03;;;2.90;99.90;;;;;;5092883;28;20176;-59
2021/12/11 05:11:48;;;;;;;7.13;4.50;;;2.80;99.90;;;;;;5092772;28;20202;-59
2021/12/11 05:14:17;;;;;;;5.60;4.30;;;2.80;99.90;;;;;;5091793;28;20280;-59
2021/12/11 05:16:43;;;;;;;6.03;4.63;;;2.80;99.90;;;;;;5092423;28;20191;-59
2021/12/11 05:19:09;;;;;;;5.53;4.47;;;2.80;99.90;;;;;;5092088;28;20184;-59
2021/12/11 05:21:35;;;;;;;5.78;4.53;;;2.80;99.90;;;;;;5092223;28;20164;-59
2021/12/11 05:24:02;;;;;;;5.90;4.20;;;2.70;99.90;;;;;;5091384;28;20244;-59
2021/12/11 05:26:28;;;;;;;6.80;4.50;;;2.70;99.90;;;;;;5091851;28;20647;-59
2021/12/11 05:28:54;;;;;;;6.82;5.00;;;2.70;99.90;;;;;;5092101;28;20184;-59
2021/12/11 05:31:20;;;;;;;7.00;5.10;;;2.70;99.90;;;;;;5091692;28;20191;-59
2021/12/11 05:33:46;;;;;;;6.30;5.00;;;2.80;99.90;;;;;;5091902;28;20635;-58
2021/12/11 05:36:14;;;;;;;9.33;5.77;;;2.80;99.90;;;;;;5092136;28;20226;-59
2021/12/11 05:38:41;;;;;;;6.97;5.10;;;2.80;99.90;;;;;;5095699;28;20209;-59
2021/12/11 05:41:11;;;;;;;6.60;4.73;;;2.80;99.90;;;;;;5100388;28;20172;-59
2021/12/11 05:43:38;;;;;;;6.07;4.70;;;2.80;99.90;;;;;;5091635;28;20176;-59
2021/12/11 05:46:06;;;;;;;6.45;4.78;;;2.80;99.90;;;;;;5092037;28;20263;-59
2021/12/11 05:48:32;;;;;;;8.07;5.90;;;2.80;99.90;;;;;;5091626;28;20192;-59
2021/12/11 05:51:01;;;;;;;7.53;5.53;;;2.80;99.90;;;;;;5091527;28;20225;-59
2021/12/11 05:53:28;;;;;;;9.02;6.30;;;2.80;99.90;;;;;;5091654;28;20180;-59
2021/12/11 05:55:55;;;;;;;7.68;5.68;;;2.80;99.90;;;;;;5071433;28;20295;-59
2021/12/11 05:59:08;;;;;;;6.40;4.88;;;2.90;99.90;;;;;;5071647;28;20181;-59
2021/12/11 06:01:08;;;;;;;7.57;5.72;;;2.90;99.90;;;;;;5067549;28;20189;-59
2021/12/11 06:03:37;;;;;;;9.65;5.95;;;2.80;99.90;;;;;;5090034;28;20180;-59
2021/12/11 06:06:04;;;;;;;8.40;5.30;;;2.90;99.90;;;;;;5091310;28;20179;-58
2021/12/11 06:08:31;;;;;;;8.00;5.47;;;2.90;99.90;;;;;;5091393;28;20572;-60
2021/12/11 06:10:58;;;;;;;7.55;5.20;;;2.90;99.90;;;;;;5091058;28;20252;-62
2021/12/11 06:13:25;;;;;;;7.63;5.45;;;2.90;99.90;;;;;;5090198;28;20580;-61
2021/12/11 06:15:54;;;;;;;9.30;6.17;;;2.90;99.90;;;;;;5091234;28;20180;-59
2021/12/11 06:18:20;;;;;;;7.60;5.43;;;2.90;99.90;;;;;;5091670;28;20263;-60
2021/12/11 06:20:47;;;;;;;8.47;6.03;;;2.80;99.90;;;;;;5091625;28;20662;-62
2021/12/11 06:23:14;;;;;;;7.87;5.93;;;2.80;99.90;;;;;;5091696;28;20176;-60
2021/12/11 06:25:40;;;;;;;9.60;6.90;;;2.80;99.90;;;;;;5091593;28;20180;-58
2021/12/11 06:28:07;;;;;;;9.00;7.03;;;2.80;99.90;;;;;;5090417;28;20168;-60
2021/12/11 06:30:34;;;;;;;9.23;6.93;;;2.80;99.90;;;;;;5091451;28;20216;-60
2021/12/11 06:33:00;;;;;;;7.55;6.18;;;2.80;99.90;;;;;;5091576;28;20667;-61
2021/12/11 06:35:35;;;;;;;10.23;6.37;;;2.90;99.90;;;;;;5093855;28;20199;-62
2021/12/11 06:38:01;;;;;;;9.57;6.90;;;2.80;99.90;;;;;;5094977;28;20219;-61
2021/12/11 06:40:27;;;;;;;10.80;7.10;;;2.80;99.90;;;;;;5095350;28;20181;-61
2021/12/11 06:42:54;;;;;;;13.20;7.93;;;2.80;99.90;;;;;;5095143;28;20176;-61
2021/12/11 06:45:21;;;;;;;14.43;9.37;;;2.80;99.90;;;;;;5095255;28;20503;-61
2021/12/11 06:47:47;;;;;;;14.67;8.50;;;2.80;99.90;;;;;;5093861;28;20249;-61
2021/12/11 06:50:14;;;;;;;17.37;9.80;;;2.80;99.90;;;;;;5099451;28;20239;-61
2021/12/11 06:52:42;;;;;;;14.02;8.73;;;2.80;99.90;;;;;;5102945;28;20672;-60
2021/12/11 06:55:09;;;;;;;12.90;8.67;;;2.80;99.90;;;;;;5094799;28;20310;-60
2021/12/11 06:57:35;;;;;;;12.87;7.83;;;2.80;99.90;;;;;;5095022;28;20179;-61
2021/12/11 07:00:02;;;;;;;12.10;8.00;;;2.70;99.90;;;;;;5095033;28;20172;-62
2021/12/11 07:02:29;;;;;;;10.80;7.70;;;2.70;99.90;;;;;;5094836;28;20265;-61
2021/12/11 07:04:55;;;;;;;11.57;8.20;;;2.70;99.90;;;;;;5093482;28;20580;-62
2021/12/11 07:07:25;;;;;;;12.43;8.32;;;2.70;99.90;;;;;;5094665;28;20176;-61
2021/12/11 07:09:52;;;;;;;12.10;8.38;;;2.70;99.90;;;;;;5093642;28;20235;-61
2021/12/11 07:12:19;;;;;;;13.23;8.65;;;2.70;99.90;;;;;;5094619;28;20184;-61
2021/12/11 07:14:46;;;;;;;12.80;8.47;;;2.70;99.90;;;;;;5094786;28;20180;-61
2021/12/11 07:17:12;;;;;;;15.20;9.15;;;2.60;99.90;;;;;;5094722;28;20180;-60
2021/12/11 07:19:38;;;;;;;16.45;9.07;;;2.60;99.90;;;;;;5094406;28;20208;-61
2021/12/11 07:22:04;;;;;;;13.13;8.63;;;2.60;99.90;;;;;;5094578;28;20176;-61
2021/12/11 07:24:34;;;;;;;13.27;8.40;;;2.70;99.90;;;;;;5094410;28;20164;-61
2021/12/11 07:27:03;;;;;;;11.90;8.30;;;2.60;99.90;;;;;;5094599;28;20207;-60
2021/12/11 07:29:30;;;;;;;14.00;8.27;;;2.60;99.90;;;;;;5094236;28;20219;-60
2021/12/11 07:31:57;;;;;;;15.40;9.43;;;2.70;99.90;;;;;;5094338;28;20631;-61
2021/12/11 07:34:23;;;;;;;14.77;9.20;;;2.90;99.90;;;;;;5092882;28;20192;-61
2021/12/11 07:36:50;;;;;;;15.98;8.68;;;2.90;99.90;;;;;;5094271;28;20180;-62
2021/12/11 07:39:17;;;;;;;12.50;8.57;;;3.10;99.90;;;;;;5094251;28;20184;-61
2021/12/11 07:41:44;;;;;;;12.13;8.38;;;3.00;99.90;;;;;;5094268;28;20184;-63
2021/12/11 07:44:10;;;;;;;12.77;8.35;;;3.00;99.90;;;;;;5094143;28;20172;-63
2021/12/11 07:46:36;;;;;;;15.40;9.57;;;2.90;99.90;;;;;;5093772;28;20513;-63
2021/12/11 07:49:03;;;;;;;12.27;8.00;;;2.90;99.90;;;;;;5094081;28;20172;-63
2021/12/11 07:51:30;;;;;;;12.27;8.18;;;2.80;99.90;;;;;;5093889;28;20191;-63
2021/12/11 07:53:56;;;;;;;11.77;7.55;;;2.80;99.90;;;;;;5093938;28;20184;-63
2021/12/11 07:56:23;;;;;;;13.27;8.40;;;2.80;99.90;;;;;;5093571;28;20232;-63
2021/12/11 07:58:51;;;;;;;14.52;8.93;;;2.80;99.90;;;;;;5098990;28;20168;-63
2021/12/11 08:01:18;;;;;;;15.27;9.60;;;2.70;99.90;;;;;;5100503;28;20176;-63
2021/12/11 08:03:44;;;;;;;14.93;9.30;;;2.70;99.90;;;;;;5092993;28;20199;-63
2021/12/11 08:06:12;;;;;;;15.27;9.27;;;2.70;99.90;;;;;;5093630;28;20172;-63
2021/12/11 08:08:39;;;;;;;15.50;9.23;;;2.70;99.90;;;;;;5093386;28;20769;-63
2021/12/11 08:11:12;;;;;;;16.02;10.18;;;2.70;99.90;;;;;;5093447;28;20219;-63
2021/12/11 08:13:43;;;;;;;15.40;9.93;;;2.80;99.90;;;;;;5093425;28;20176;-63
2021/12/11 08:16:09;;;;;;;16.53;10.43;;;2.80;99.90;;;;;;5093539;28;20222;-63
2021/12/11 08:18:34;;;;;;;17.05;10.40;;;2.80;99.90;;;;;;5093373;28;20563;-63
2021/12/11 08:21:00;;;;;;;15.93;9.70;;;2.80;99.90;;;;;;5093478;28;20176;-63
2021/12/11 08:23:26;;;;;;;16.65;10.20;;;2.90;99.90;;;;;;5093296;28;20530;-63
2021/12/11 08:25:53;;;;;;;17.87;10.87;;;2.90;99.90;;;;;;5093171;28;20654;-63
2021/12/11 08:28:25;;;;;;;18.07;10.63;;;2.90;99.90;;;;;;5072957;28;20184;-62
2021/12/11 08:30:52;;;;;;;16.67;10.23;;;3.00;99.90;;;;;;5082827;28;20705;-63
2021/12/11 08:33:20;;;;;;;17.03;10.53;;;3.00;99.90;;;;;;5093137;28;20179;-62
2021/12/11 08:35:46;;;;;;;20.03;11.50;;;3.00;99.90;;;;;;5092625;28;20241;-62
2021/12/11 08:38:12;;;;;;;28.85;17.60;;;3.10;99.90;;;;;;5092438;28;20184;-63
2021/12/11 08:40:43;;;;;;;34.00;19.33;;;3.10;99.90;;;;;;5097868;28;20248;-63
2021/12/11 08:43:11;;;;;;;35.90;17.67;;;3.10;99.90;;;;;;5092956;28;20211;-63
2021/12/11 08:45:50;;;;;;;30.33;15.95;;;3.10;99.90;;;;;;5092789;28;20267;-63
2021/12/11 08:48:21;;;;;;;46.25;20.10;;;3.20;99.90;;;;;;5101379;28;20536;-63
2021/12/11 08:50:49;;;;;;;106.30;37.87;;;3.20;99.90;;;;;;5096077;28;20207;-62
2021/12/11 08:53:16;;;;;;;33.80;16.60;;;3.20;99.90;;;;;;5096230;28;20172;-62
2021/12/11 08:55:45;;;;;;;26.40;13.98;;;3.20;99.90;;;;;;5112795;28;20705;-63
2021/12/11 08:58:14;;;;;;;33.83;16.90;;;3.20;99.90;;;;;;5100771;28;20184;-62
2021/12/11 09:00:56;;;;;;;42.55;18.13;;;3.30;99.90;;;;;;5092528;28;20179;-64
2021/12/11 09:03:25;;;;;;;31.65;16.38;;;3.30;99.90;;;;;;5092484;28;20245;-63
2021/12/11 09:06:23;;;;;;;89.72;42.08;;;3.30;99.90;;;;;;5099608;28;20178;-63
2021/12/11 09:08:57;;;;;;;41.47;21.48;;;3.30;99.90;;;;;;5108788;28;20186;-61
2021/12/11 09:11:41;;;;;;;30.58;15.30;;;3.40;99.90;;;;;;5112771;28;20186;-62
2021/12/11 09:14:17;;;;;;;32.92;17.45;;;3.40;99.90;;;;;;5112961;28;20176;-62
2021/12/11 09:17:02;;;;;;;21.67;13.10;;;3.40;99.90;;;;;;5112833;28;20171;-61
2021/12/11 09:19:39;;;;;;;18.88;12.15;;;3.40;99.90;;;;;;5112728;28;20167;-61
2021/12/11 09:22:34;;;;;;;20.67;11.77;;;3.50;99.90;;;;;;5106657;28;20176;-61
2021/12/11 09:25:10;;;;;;;30.05;16.58;;;3.60;99.90;;;;;;5092354;28;20635;-61
2021/12/11 09:27:47;;;;;;;17.55;11.13;;;3.60;99.90;;;;;;5092323;28;20199;-62
2021/12/11 09:30:17;;;;;;;19.50;11.45;;;3.60;99.90;;;;;;5093383;28;20216;-62
2021/12/11 09:32:49;;;;;;;22.23;13.73;;;3.60;99.90;;;;;;5102576;28;20176;-62
2021/12/11 09:35:30;;;;;;;18.80;11.55;;;3.70;99.90;;;;;;5090557;28;20180;-63
2021/12/11 09:38:02;;;;;;;20.48;12.07;;;3.80;99.90;;;;;;5111635;28;20604;-62
2021/12/11 09:40:58;;;;;;;16.48;10.63;;;3.80;99.90;;;;;;5112280;28;20183;-62
2021/12/11 09:43:38;;;;;;;19.40;11.15;;;3.80;99.90;;;;;;5112236;28;20258;-63
2021/12/11 09:46:08;;;;;;;20.48;11.40;;;3.80;99.90;;;;;;5112681;28;20210;-62
2021/12/11 09:48:33;;;;;;;18.92;10.55;;;3.80;99.90;;;;;;5105270;28;20564;-63
2021/12/11 09:51:04;;;;;;;16.92;10.20;;;3.90;99.90;;;;;;5091857;28;20234;-61
2021/12/11 09:53:37;;;;;;;18.23;10.93;;;4.00;99.90;;;;;;5087214;28;20272;-63
2021/12/11 09:56:07;;;;;;;32.63;17.17;;;4.20;99.90;;;;;;5075656;28;20223;-63
2021/12/11 09:58:36;;;;;;;30.15;17.83;;;4.30;99.90;;;;;;5090926;28;20207;-63
2021/12/11 10:01:15;;;;;;;23.80;13.73;;;4.40;99.90;;;;;;5091901;28;20160;-62
2021/12/11 10:03:49;;;;;;;26.95;15.18;;;4.50;99.90;;;;;;5091726;28;20225;-64
2021/12/11 10:06:40;;;;;;;18.30;11.20;;;4.50;99.90;;;;;;5091248;28;20235;-63
2021/12/11 10:09:18;;;;;;;15.52;9.50;;;4.50;99.90;;;;;;5093618;28;20580;-62
2021/12/11 10:12:13;;;;;;;30.33;15.13;;;4.30;99.90;;;;;;5095962;28;20168;-62
2021/12/11 10:14:49;;;;;;;17.65;11.18;;;4.30;99.90;;;;;;5092617;28;20196;-61
2021/12/11 10:17:20;;;;;;;16.50;9.40;;;4.30;99.90;;;;;;5094849;28;20544;-62
2021/12/11 10:19:48;;;;;;;14.50;9.55;;;4.30;99.90;;;;;;5094297;28;20630;-63
2021/12/11 10:22:21;;;;;;;14.30;9.20;;;4.30;99.90;;;;;;5093523;28;20229;-63
2021/12/11 10:24:48;;;;;;;15.30;9.82;;;4.40;99.90;;;;;;5095556;28;20184;-63
2021/12/11 10:27:18;;;;;;;17.40;11.02;;;4.40;99.90;;;;;;5095451;28;20183;-63
2021/12/11 10:29:45;;;;;;;14.50;9.57;;;4.40;99.90;;;;;;5095385;28;20269;-63
2021/12/11 10:32:16;;;;;;;16.08;10.63;;;4.40;99.90;;;;;;5095535;28;20180;-63
2021/12/11 10:34:45;;;;;;;18.38;10.80;;;4.50;99.90;;;;;;5095497;28;20605;-63
2021/12/11 10:37:16;;;;;;;18.35;11.55;;;4.60;99.90;;;;;;5095418;28;20678;-63
2021/12/11 10:39:48;;;;;;;15.75;9.63;;;4.60;99.90;;;;;;5095316;28;20180;-63
2021/12/11 10:42:14;;;;;;;16.27;10.27;;;4.60;99.90;;;;;;5095262;28;20180;-63
2021/12/11 10:44:44;;;;;;;17.30;10.48;;;4.60;99.90;;;;;;5095243;28;20172;-63
2021/12/11 10:47:37;;;;;;;17.35;10.15;;;4.60;99.90;;;;;;5095427;28;20173;-62
2021/12/11 10:50:09;;;;;;;17.40;10.18;;;4.60;99.90;;;;;;5095243;28;20208;-62
2021/12/11 10:52:36;;;;;;;16.40;9.65;;;4.60;99.90;;;;;;5095063;28;20212;-62
2021/12/11 10:55:07;;;;;;;19.00;11.48;;;4.60;99.90;;;;;;5094920;28;20192;-63
2021/12/11 10:57:33;;;;;;;17.08;10.40;;;4.60;99.90;;;;;;5094864;28;20176;-63
2021/12/11 11:00:02;;;;;;;16.75;9.77;;;4.70;99.90;;;;;;5095175;28;20654;-62
2021/12/11 11:02:31;;;;;;;15.52;9.63;;;4.80;99.90;;;;;;5094739;28;20176;-62
2021/12/11 11:05:04;;;;;;;16.85;10.40;;;4.80;99.90;;;;;;5095009;28;20218;-63
2021/12/11 11:07:30;;;;;;;15.40;9.23;;;4.80;99.90;;;;;;5094900;28;20173;-62
2021/12/11 11:10:02;;;;;;;13.57;8.52;;;4.70;99.90;;;;;;5094595;28;20215;-62
2021/12/11 11:12:30;;;;;;;12.75;8.90;;;4.60;99.90;;;;;;5094710;28;20561;-62
2021/12/11 11:14:56;;;;;;;19.05;9.23;;;4.60;99.90;;;;;;5094725;28;20169;-62
2021/12/11 11:17:29;;;;;;;13.45;8.98;;;4.60;99.90;;;;;;5094686;28;20176;-62
2021/12/11 11:19:56;;;;;;;14.57;8.70;;;4.60;99.90;;;;;;5094049;28;20200;-62
2021/12/11 11:22:31;;;;;;;15.07;9.43;;;4.50;99.90;;;;;;5094556;28;20199;-62
2021/12/11 11:25:11;;;;;;;13.95;8.90;;;4.50;99.90;;;;;;5094282;28;20204;-62
2021/12/11 11:27:38;;;;;;;14.57;9.50;;;4.50;99.90;;;;;;5112240;28;20198;-62
2021/12/11 11:30:10;;;;;;;15.52;8.63;;;4.50;99.90;;;;;;5094212;28;20211;-62
2021/12/11 11:32:36;;;;;;;14.90;9.80;;;4.50;99.90;;;;;;5093772;28;20275;-62
2021/12/11 11:35:15;;;;;;;17.75;10.52;;;4.50;99.90;;;;;;5094140;28;20259;-62
2021/12/11 11:37:41;;;;;;;14.05;8.98;;;4.60;99.90;;;;;;5094399;28;20168;-62
2021/12/11 11:40:14;;;;;;;12.73;8.27;;;4.70;99.90;;;;;;5092916;28;20647;-62
2021/12/11 11:42:41;;;;;;;13.18;8.48;;;4.60;99.90;;;;;;5093866;28;20238;-63
2021/12/11 11:45:09;;;;;;;13.90;8.65;;;4.70;99.90;;;;;;5094148;28;20255;-62
2021/12/11 11:47:35;;;;;;;15.30;9.35;;;4.60;99.90;;;;;;5093364;28;20574;-61
2021/12/11 11:50:03;;;;;;;14.48;9.60;;;4.70;99.90;;;;;;5093582;28;20211;-62
2021/12/11 11:52:29;;;;;;;14.57;9.48;;;4.70;99.90;;;;;;5093348;28;20173;-62
2021/12/11 11:55:00;;;;;;;15.77;8.70;;;4.80;99.90;;;;;;5093640;28;20180;-61
2021/12/11 11:57:30;;;;;;;15.15;9.02;;;4.80;99.90;;;;;;5093719;28;20611;-62
2021/12/11 11:59:57;;;;;;;13.75;8.73;;;4.90;99.90;;;;;;5093972;28;20206;-61
2021/12/11 12:02:26;;;;;;;16.02;8.88;;;4.90;99.90;;;;;;5093604;28;20179;-63
2021/12/11 12:04:55;;;;;;;14.73;8.55;;;4.90;99.90;;;;;;5093598;28;20183;-62
2021/12/11 12:07:26;;;;;;;13.95;8.60;;;4.90;99.90;;;;;;5093517;28;20172;-63
2021/12/11 12:09:53;;;;;;;13.85;8.25;;;5.00;99.90;;;;;;5093709;28;20219;-63
2021/12/11 12:12:22;;;;;;;13.40;7.70;;;5.00;99.90;;;;;;5093101;28;20176;-63
2021/12/11 12:14:49;;;;;;;12.15;7.57;;;5.00;99.90;;;;;;5093136;28;20187;-63
2021/12/11 12:17:18;;;;;;;12.48;8.27;;;5.00;99.90;;;;;;5092769;28;20239;-63
2021/12/11 12:19:44;;;;;;;14.23;9.23;;;5.00;99.90;;;;;;5094063;28;20526;-62
2021/12/11 12:22:12;;;;;;;14.55;8.85;;;5.10;99.90;;;;;;5092304;28;20229;-62
2021/12/11 12:24:40;;;;;;;14.80;8.38;;;5.10;99.90;;;;;;5091975;28;20203;-63
2021/12/11 12:27:09;;;;;;;16.70;10.32;;;5.00;99.90;;;;;;5108940;28;20188;-63
2021/12/11 12:29:36;;;;;;;12.73;8.40;;;5.00;99.90;;;;;;5110825;28;20230;-62
2021/12/11 12:32:09;;;;;;;10.98;6.55;;;5.00;99.90;;;;;;5099744;28;20928;-64
2021/12/11 12:34:35;;;;;;;10.68;7.30;;;5.00;99.90;;;;;;5106257;28;20175;-62
2021/12/11 12:37:01;;;;;;;12.40;7.63;;;5.00;99.90;;;;;;5108874;28;20724;-63
2021/12/11 12:39:37;;;;;;;12.05;7.22;;;5.00;99.90;;;;;;5092352;28;20180;-62
2021/12/11 12:42:18;;;;;;;12.30;7.13;;;5.00;99.90;;;;;;5092164;28;20163;-63
2021/12/11 12:44:52;;;;;;;12.68;7.35;;;5.00;99.90;;;;;;5092277;28;20183;-61
2021/12/11 12:47:29;;;;;;;12.13;6.72;;;5.00;99.90;;;;;;5092450;28;20226;-61
2021/12/11 12:49:58;;;;;;;12.60;7.70;;;5.00;99.90;;;;;;5071917;28;20220;-63
2021/12/11 12:52:32;;;;;;;11.32;7.35;;;5.10;99.90;;;;;;5071677;28;20184;-63
2021/12/11 12:54:58;;;;;;;13.82;7.70;;;5.10;99.90;;;;;;5091055;28;20187;-64
2021/12/11 12:57:29;;;;;;;11.85;6.90;;;5.20;99.90;;;;;;5092390;28;20669;-64
2021/12/11 13:00:15;;;;;;;20.65;8.15;;;5.20;99.90;;;;;;5092638;28;20192;-64
2021/12/11 13:02:41;;;;;;;11.90;8.13;;;5.30;99.90;;;;;;5090613;28;20291;-63
2021/12/11 13:05:15;;;;;;;24.85;12.65;;;5.40;99.90;;;;;;5092282;28;20179;-63
2021/12/11 13:07:42;;;;;;;13.82;8.68;;;5.50;99.90;;;;;;5091996;28;20588;-63
2021/12/11 13:10:13;;;;;;;12.38;7.25;;;5.60;99.90;;;;;;5091402;28;20211;-63
2021/12/11 13:12:43;;;;;;;11.45;6.97;;;5.50;99.90;;;;;;5090118;28;20180;-61
2021/12/11 13:15:15;;;;;;;11.40;8.40;;;5.40;99.90;;;;;;5089768;28;20180;-63
2021/12/11 13:17:45;;;;;;;10.63;6.60;;;5.40;99.90;;;;;;5091122;28;20199;-63
2021/12/11 13:20:17;;;;;;;14.90;9.45;;;5.40;99.90;;;;;;5090424;28;20260;-63
2021/12/11 13:22:45;;;;;;;12.82;8.73;;;5.40;99.90;;;;;;5090997;28;20234;-63
2021/12/11 13:25:19;;;;;;;11.73;6.53;;;5.50;99.90;;;;;;5089652;28;20180;-62